createdAt,value
2019-02-17T00:01:51.887Z,43.97
2019-02-17T00:04:56.697Z,46.67
2019-02-17T00:08:01.581Z,43.90
2019-02-17T00:11:06.258Z,42.93
2019-02-17T00:14:11.118Z,42.57
2019-02-17T00:17:15.998Z,42.83
2019-02-17T00:20:20.848Z,39.63
2019-02-17T00:23:25.666Z,39.80
2019-02-17T00:26:30.512Z,39.83
2019-02-17T00:29:35.443Z,39.40
2019-02-17T00:32:40.368Z,38.47
2019-02-17T00:35:45.095Z,37.13
2019-02-17T00:38:49.953Z,38.53
2019-02-17T00:41:54.601Z,35.87
2019-02-17T00:44:59.503Z,34.80
2019-02-17T00:48:04.366Z,34.13
2019-02-17T00:51:09.142Z,34.33
2019-02-17T00:54:13.926Z,32.90
2019-02-17T00:57:18.602Z,33.40
2019-02-17T01:00:23.547Z,30.57
2019-02-17T01:03:28.375Z,30.87
2019-02-17T01:06:33.308Z,31.33
2019-02-17T01:09:38.156Z,30.67
2019-02-17T01:12:42.663Z,29.57
2019-02-17T01:15:47.598Z,29.80
2019-02-17T01:18:52.450Z,29.20
2019-02-17T01:21:57.397Z,28.00
2019-02-17T01:25:02.192Z,27.70
2019-02-17T01:28:06.952Z,27.50
2019-02-17T01:31:11.729Z,26.60
2019-02-17T01:34:16.700Z,26.93
2019-02-17T01:37:21.624Z,26.20
2019-02-17T01:40:26.587Z,25.30
2019-02-17T01:43:31.482Z,26.40
2019-02-17T01:46:38.394Z,24.63
2019-02-17T01:49:42.704Z,24.30
2019-02-17T01:52:47.506Z,24.97
2019-02-17T01:55:52.122Z,22.63
2019-02-17T01:58:56.973Z,22.20
2019-02-17T02:02:01.953Z,24.93
2019-02-17T02:05:07.060Z,22.00
2019-02-17T02:08:11.963Z,21.83
2019-02-17T02:11:19.439Z,22.90
2019-02-17T02:14:24.399Z,21.63
2019-02-17T02:17:29.123Z,20.37
2019-02-17T02:20:33.946Z,21.13
2019-02-17T02:23:38.782Z,20.47
2019-02-17T02:26:45.676Z,21.13
2019-02-17T02:29:50.471Z,20.37
2019-02-17T02:32:55.331Z,19.77
2019-02-17T02:36:00.152Z,20.33
2019-02-17T02:39:06.950Z,20.00
2019-02-17T02:42:11.432Z,18.70
2019-02-17T02:45:16.272Z,19.60
2019-02-17T02:48:21.300Z,18.40
2019-02-17T02:51:26.032Z,19.07
2019-02-17T02:54:30.852Z,19.20
2019-02-17T02:57:35.599Z,18.60
2019-02-17T03:00:40.423Z,18.07
2019-02-17T03:03:46.220Z,17.27
2019-02-17T03:06:56.478Z,17.03
2019-02-17T03:10:01.244Z,17.43
2019-02-17T03:13:06.204Z,18.40
2019-02-17T03:16:11.125Z,16.90
2019-02-17T03:19:16.070Z,16.20
2019-02-17T03:22:20.768Z,17.87
2019-02-17T03:25:25.627Z,16.43
2019-02-17T03:28:30.439Z,16.93
2019-02-17T03:31:35.380Z,16.23
2019-02-17T03:34:40.209Z,16.10
2019-02-17T03:37:45.256Z,16.00
2019-02-17T03:40:50.066Z,15.50
2019-02-17T03:43:54.713Z,15.80
2019-02-17T03:46:59.624Z,15.47
2019-02-17T03:50:04.690Z,15.47
2019-02-17T03:53:09.483Z,14.83
2019-02-17T03:56:14.337Z,15.00
2019-02-17T03:59:19.047Z,15.33
2019-02-17T04:02:24.083Z,15.53
2019-02-17T04:05:29.018Z,13.50
2019-02-17T04:08:33.865Z,14.60
2019-02-17T04:11:38.820Z,13.53
2019-02-17T04:14:43.418Z,14.40
2019-02-17T04:17:48.228Z,14.40
2019-02-17T04:20:53.283Z,13.03
2019-02-17T04:23:58.093Z,14.90
2019-02-17T04:27:02.969Z,14.97
2019-02-17T04:30:07.520Z,16.37
2019-02-17T04:33:12.502Z,15.80
2019-02-17T04:36:17.323Z,15.73
2019-02-17T04:39:22.167Z,15.80
2019-02-17T04:42:26.908Z,18.57
2019-02-17T04:45:32.547Z,17.33
2019-02-17T04:48:37.263Z,19.00
2019-02-17T04:51:41.821Z,19.10
2019-02-17T04:54:46.610Z,20.17
2019-02-17T04:57:51.557Z,21.83
2019-02-17T05:00:56.269Z,22.10
2019-02-17T05:04:01.241Z,24.50
2019-02-17T05:07:06.061Z,24.70
2019-02-17T05:10:10.883Z,26.03
2019-02-17T05:13:15.679Z,26.20
2019-02-17T05:16:20.477Z,32.33
2019-02-17T05:19:25.365Z,32.90
2019-02-17T05:22:30.309Z,29.80
2019-02-17T05:25:35.208Z,33.33
2019-02-17T05:28:39.875Z,30.87
2019-02-17T05:31:44.687Z,35.50
2019-02-17T05:34:49.623Z,35.50
2019-02-17T05:37:54.440Z,35.03
2019-02-17T05:40:59.288Z,37.53
2019-02-17T05:44:04.099Z,35.83
2019-02-17T05:47:08.833Z,34.07
2019-02-17T05:50:13.634Z,32.57
2019-02-17T05:53:18.405Z,33.03
2019-02-17T05:56:23.264Z,32.40
2019-02-17T05:59:27.887Z,31.93
2019-02-17T06:02:33.994Z,31.87
2019-02-17T06:05:38.864Z,30.53
2019-02-17T06:08:43.540Z,27.63
2019-02-17T06:11:48.429Z,29.07
2019-02-17T06:14:53.314Z,25.10
2019-02-17T06:17:58.167Z,23.83
2019-02-17T06:21:02.968Z,23.37
2019-02-17T06:24:07.747Z,22.80
2019-02-17T06:27:12.665Z,22.53
2019-02-17T06:30:17.479Z,25.00
2019-02-17T06:33:22.293Z,24.20
2019-02-17T06:36:27.161Z,26.70
2019-02-17T06:39:33.448Z,19.73
2019-02-17T06:42:38.342Z,20.90
2019-02-17T06:45:44.362Z,21.63
2019-02-17T06:48:49.048Z,23.83
2019-02-17T06:51:53.841Z,22.13
2019-02-17T06:55:20.232Z,26.13
2019-02-17T06:58:25.108Z,22.43
2019-02-17T07:01:29.946Z,21.83
2019-02-17T07:04:44.589Z,21.10
2019-02-17T07:07:49.521Z,21.87
2019-02-17T07:10:54.354Z,19.57
2019-02-17T07:13:59.276Z,19.73
2019-02-17T07:17:03.732Z,19.93
2019-02-17T07:20:09.762Z,18.97
2019-02-17T07:23:15.261Z,19.87
2019-02-17T07:26:20.249Z,18.17
2019-02-17T07:29:24.997Z,19.23
2019-02-17T07:32:29.692Z,18.13
2019-02-17T07:35:34.574Z,18.33
2019-02-17T07:38:39.353Z,19.43
2019-02-17T07:41:44.196Z,18.63
2019-02-17T07:44:49.032Z,17.70
2019-02-17T07:47:55.225Z,18.63
2019-02-17T07:51:00.086Z,17.53
2019-02-17T07:54:07.080Z,18.07
2019-02-17T07:57:11.859Z,17.30
2019-02-17T08:00:16.537Z,17.77
2019-02-17T08:03:21.394Z,18.13
2019-02-17T08:06:25.920Z,18.97
2019-02-17T08:09:30.968Z,17.53
2019-02-17T08:12:35.766Z,18.30
2019-02-17T08:15:40.763Z,17.77
2019-02-17T08:18:45.642Z,16.50
2019-02-17T08:21:50.314Z,16.37
2019-02-17T08:24:57.431Z,16.90
2019-02-17T08:28:02.326Z,17.60
2019-02-17T08:31:07.109Z,16.57
2019-02-17T08:34:11.837Z,16.10
2019-02-17T08:37:16.762Z,16.40
2019-02-17T08:40:21.523Z,18.07
2019-02-17T08:43:26.217Z,16.87
2019-02-17T08:46:30.957Z,32.43
2019-02-17T08:49:35.878Z,23.60
2019-02-17T08:52:40.748Z,22.67
2019-02-17T08:55:45.606Z,22.90
2019-02-17T08:58:50.378Z,21.87
2019-02-17T09:02:05.349Z,22.00
2019-02-17T09:05:01.685Z,21.57
2019-02-17T09:08:06.538Z,21.30
2019-02-17T09:11:11.146Z,21.70
2019-02-17T09:14:15.890Z,21.57
2019-02-17T09:17:20.584Z,20.37
2019-02-17T09:20:25.469Z,21.77
2019-02-17T09:23:30.041Z,19.50
2019-02-17T09:26:34.579Z,19.47
2019-02-17T09:29:39.495Z,20.83
2019-02-17T09:32:44.345Z,18.47
2019-02-17T09:35:49.061Z,18.37
2019-02-17T09:38:53.997Z,20.00
2019-02-17T09:41:58.606Z,19.30
2019-02-17T09:45:03.458Z,19.87
2019-02-17T09:48:09.875Z,18.60
2019-02-17T09:51:14.665Z,18.60
2019-02-17T09:54:20.501Z,19.03
2019-02-17T09:57:25.334Z,18.83
2019-02-17T10:00:30.193Z,17.97
2019-02-17T10:03:34.999Z,18.90
2019-02-17T10:06:39.821Z,17.67
2019-02-17T10:09:44.773Z,18.60
2019-02-17T10:12:49.583Z,18.93
2019-02-17T10:15:54.411Z,18.60
2019-02-17T10:18:59.357Z,18.00
2019-02-17T10:22:05.285Z,17.57
2019-02-17T10:25:11.653Z,17.80
2019-02-17T10:28:16.525Z,17.50
2019-02-17T10:31:21.217Z,18.47
2019-02-17T10:34:25.839Z,17.23
2019-02-17T10:37:30.787Z,16.97
2019-02-17T10:40:35.610Z,21.10
2019-02-17T10:43:40.355Z,18.80
2019-02-17T10:46:47.071Z,18.53
2019-02-17T10:49:51.661Z,18.27
2019-02-17T10:52:56.571Z,19.03
2019-02-17T10:56:01.420Z,17.93
2019-02-17T10:59:06.130Z,18.37
2019-02-17T11:02:11.059Z,17.40
2019-02-17T11:05:15.697Z,17.23
2019-02-17T11:08:20.438Z,17.47
2019-02-17T11:11:25.263Z,17.50
2019-02-17T11:14:29.883Z,16.77
2019-02-17T11:17:34.695Z,16.70
2019-02-17T11:20:39.345Z,16.50
2019-02-17T11:23:44.260Z,17.13
2019-02-17T11:26:49.102Z,15.60
2019-02-17T11:29:53.858Z,15.80
2019-02-17T11:32:58.758Z,17.10
2019-02-17T11:36:03.483Z,15.80
2019-02-17T11:39:13.632Z,16.23
2019-02-17T11:42:18.477Z,16.60
2019-02-17T11:45:23.198Z,15.53
2019-02-17T11:48:28.028Z,16.10
2019-02-17T11:51:32.854Z,16.33
2019-02-17T11:54:37.381Z,15.87
2019-02-17T11:57:42.317Z,15.33
2019-02-17T12:00:47.143Z,16.20
2019-02-17T12:03:51.962Z,15.67
2019-02-17T12:06:56.908Z,14.87
2019-02-17T12:10:01.543Z,14.93
2019-02-17T12:13:06.262Z,16.03
2019-02-17T12:16:10.995Z,15.53
2019-02-17T12:19:15.825Z,14.30
2019-02-17T12:22:42.820Z,14.40
2019-02-17T12:26:12.491Z,14.03
2019-02-17T12:29:42.081Z,13.90
2019-02-17T12:32:46.927Z,14.80
2019-02-17T12:35:51.699Z,14.03
2019-02-17T12:38:56.672Z,13.30
2019-02-17T12:42:01.472Z,13.40
2019-02-17T12:45:06.630Z,13.40
2019-02-17T12:48:11.065Z,14.03
2019-02-17T12:51:16.097Z,14.00
2019-02-17T12:54:28.826Z,13.17
2019-02-17T12:57:27.485Z,12.60
2019-02-17T13:00:32.318Z,13.20
2019-02-17T13:03:37.142Z,13.03
2019-02-17T13:06:41.857Z,13.20
2019-02-17T13:09:46.695Z,13.20
2019-02-17T13:12:51.525Z,13.73
2019-02-17T13:15:56.457Z,12.40
2019-02-17T13:19:01.164Z,13.03
2019-02-17T13:22:05.915Z,12.90
2019-02-17T13:25:11.530Z,12.33
2019-02-17T13:28:16.399Z,12.20
2019-02-17T13:31:21.218Z,12.00
2019-02-17T13:34:25.950Z,12.83
2019-02-17T13:37:30.673Z,12.00
2019-02-17T13:40:35.623Z,13.40
2019-02-17T13:43:40.332Z,12.70
2019-02-17T13:46:45.174Z,13.13
2019-02-17T13:49:50.111Z,11.80
2019-02-17T13:52:54.735Z,12.60
2019-02-17T13:55:59.560Z,12.80
2019-02-17T13:59:04.295Z,11.73
2019-02-17T14:02:09.227Z,10.97
2019-02-17T14:05:14.120Z,11.70
2019-02-17T14:08:18.865Z,11.87
2019-02-17T14:11:23.714Z,12.10
2019-02-17T14:14:28.542Z,12.07
2019-02-17T14:17:33.422Z,11.03
2019-02-17T14:20:38.085Z,11.20
2019-02-17T14:23:42.649Z,11.67
2019-02-17T14:26:47.441Z,11.30
2019-02-17T14:29:52.225Z,10.93
2019-02-17T14:32:57.019Z,10.23
2019-02-17T14:36:01.765Z,11.00
2019-02-17T14:39:07.156Z,10.97
2019-02-17T14:42:12.050Z,11.20
2019-02-17T14:45:16.848Z,12.70
2019-02-17T14:48:21.821Z,11.73
2019-02-17T14:51:26.705Z,14.07
2019-02-17T14:54:31.346Z,12.13
2019-02-17T14:57:36.169Z,11.77
2019-02-17T15:00:41.072Z,11.67
2019-02-17T15:03:45.932Z,18.47
2019-02-17T15:06:50.887Z,12.70
2019-02-17T15:09:55.489Z,13.83
2019-02-17T15:13:00.352Z,12.77
2019-02-17T15:16:05.249Z,13.23
2019-02-17T15:19:11.098Z,13.10
2019-02-17T15:22:15.941Z,14.30
2019-02-17T15:25:20.631Z,16.67
2019-02-17T15:28:25.416Z,16.53
2019-02-17T15:31:31.008Z,17.93
2019-02-17T15:34:35.978Z,18.53
2019-02-17T15:37:40.845Z,19.80
2019-02-17T15:40:45.643Z,21.47
2019-02-17T15:43:50.813Z,22.80
2019-02-17T15:46:55.834Z,23.43
2019-02-17T15:50:00.709Z,27.73
2019-02-17T15:53:05.368Z,27.93
2019-02-17T15:56:10.315Z,27.90
2019-02-17T15:59:15.031Z,30.13
2019-02-17T16:02:19.911Z,34.37
2019-02-17T16:05:24.694Z,34.63
2019-02-17T16:08:29.448Z,34.57
2019-02-17T16:11:34.258Z,33.87
2019-02-17T16:14:39.139Z,33.60
2019-02-17T16:17:44.030Z,32.63
2019-02-17T16:20:49.028Z,34.30
2019-02-17T16:23:53.905Z,33.10
2019-02-17T16:26:58.738Z,32.07
2019-02-17T16:30:03.580Z,33.50
2019-02-17T16:33:08.276Z,32.73
2019-02-17T16:36:13.219Z,32.87
2019-02-17T16:39:18.176Z,35.97
2019-02-17T16:42:23.002Z,34.70
2019-02-17T16:45:27.712Z,32.77
2019-02-17T16:48:32.555Z,33.70
2019-02-17T16:51:37.466Z,34.13
2019-02-17T16:54:42.379Z,32.47
2019-02-17T16:57:47.222Z,31.87
2019-02-17T17:00:52.113Z,31.20
2019-02-17T17:03:56.915Z,30.90
2019-02-17T17:07:01.897Z,32.40
2019-02-17T17:10:06.667Z,33.23
2019-02-17T17:13:11.651Z,42.00
2019-02-17T17:16:16.330Z,45.17
2019-02-17T17:19:21.148Z,45.37
2019-02-17T17:22:25.885Z,44.40
2019-02-17T17:25:30.824Z,46.03
2019-02-17T17:28:35.840Z,45.27
2019-02-17T17:31:40.509Z,46.67
2019-02-17T17:34:45.298Z,46.57
2019-02-17T17:37:50.453Z,44.53
2019-02-17T17:40:55.266Z,48.13
2019-02-17T17:44:00.097Z,47.20
2019-02-17T17:47:04.738Z,47.43
2019-02-17T17:50:10.897Z,45.80
2019-02-17T17:53:15.707Z,48.97
2019-02-17T17:56:20.667Z,46.37
2019-02-17T17:59:25.477Z,44.20
2019-02-17T18:02:30.419Z,43.90
2019-02-17T18:05:35.232Z,44.40
2019-02-17T18:08:40.196Z,45.33
2019-02-17T18:11:45.002Z,42.27
2019-02-17T18:14:49.939Z,42.40
2019-02-17T18:17:55.133Z,42.83
2019-02-17T18:20:59.957Z,41.07
2019-02-17T18:24:04.751Z,42.07
2019-02-17T18:27:09.399Z,40.30
2019-02-17T18:30:16.538Z,39.93
2019-02-17T18:33:21.802Z,41.43
2019-02-17T18:36:26.567Z,39.53
2019-02-17T18:39:31.261Z,38.60
2019-02-17T18:42:36.085Z,35.80
2019-02-17T18:45:40.929Z,36.57
2019-02-17T18:48:45.768Z,37.40
2019-02-17T18:51:50.385Z,36.23
2019-02-17T18:54:55.186Z,34.97
2019-02-17T18:58:00.139Z,34.93
2019-02-17T19:01:05.054Z,34.17
2019-02-17T19:04:09.837Z,34.43
2019-02-17T19:07:14.508Z,35.30
2019-02-17T19:10:19.346Z,38.27
2019-02-17T19:13:24.281Z,34.60
2019-02-17T19:16:29.209Z,34.27
2019-02-17T19:19:34.049Z,35.00
2019-02-17T19:22:38.957Z,33.03
2019-02-17T19:25:43.826Z,32.83
2019-02-17T19:28:48.602Z,32.67
2019-02-17T19:31:53.306Z,32.20
2019-02-17T19:34:58.214Z,31.93
2019-02-17T19:38:03.059Z,31.47
2019-02-17T19:41:07.964Z,31.30
2019-02-17T19:44:14.252Z,32.17
2019-02-17T19:47:19.045Z,31.97
2019-02-17T19:50:23.974Z,30.00
2019-02-17T19:53:28.818Z,30.43
2019-02-17T19:56:33.555Z,30.77
2019-02-17T19:59:38.370Z,27.90
2019-02-17T20:06:29.281Z,28.10
2019-02-17T20:09:34.023Z,28.07
2019-02-17T20:12:38.861Z,27.43
2019-02-17T20:15:43.677Z,28.90
2019-02-17T20:18:48.416Z,27.80
2019-02-17T20:21:53.266Z,25.80
2019-02-17T20:24:57.977Z,27.13
2019-02-17T20:28:02.767Z,26.57
2019-02-17T20:31:07.638Z,26.20
2019-02-17T20:34:14.582Z,26.20
2019-02-17T20:37:18.931Z,26.87
2019-02-17T20:40:23.852Z,26.17
2019-02-17T20:43:28.777Z,25.20
2019-02-17T20:46:33.687Z,26.53
2019-02-17T20:49:38.538Z,27.37
2019-02-17T20:52:43.726Z,30.83
2019-02-17T20:55:48.464Z,36.80
2019-02-17T20:58:53.478Z,39.37
2019-02-17T21:02:02.036Z,41.90
2019-02-17T21:05:07.190Z,42.43
2019-02-17T21:08:12.045Z,43.20
2019-02-17T21:11:16.844Z,46.13
2019-02-17T21:14:21.783Z,46.77
2019-02-17T21:17:26.407Z,46.07
2019-02-17T21:20:31.855Z,48.73
2019-02-17T21:23:36.780Z,50.03
2019-02-17T21:26:43.671Z,50.10
2019-02-17T21:29:48.606Z,51.87
2019-02-17T21:32:53.469Z,52.80
2019-02-17T21:35:58.150Z,52.60
2019-02-17T21:39:04.825Z,53.73
2019-02-17T21:42:09.761Z,53.17
2019-02-17T21:45:14.517Z,51.00
2019-02-17T21:48:19.423Z,52.23
2019-02-17T21:51:24.163Z,53.00
2019-02-17T21:54:29.064Z,54.00
2019-02-17T21:57:34.039Z,59.20
2019-02-17T22:00:38.942Z,54.17
2019-02-17T22:03:43.778Z,55.70
2019-02-17T22:06:48.589Z,58.57
2019-02-17T22:09:53.453Z,54.80
2019-02-17T22:12:58.288Z,53.70
2019-02-17T22:16:02.985Z,53.40
2019-02-17T22:19:07.831Z,54.87
2019-02-17T22:22:12.469Z,53.43
2019-02-17T22:25:17.485Z,55.13
2019-02-17T22:28:22.445Z,56.43
2019-02-17T22:31:27.224Z,57.93
2019-02-17T22:34:31.874Z,59.80
2019-02-17T22:37:36.583Z,62.90
2019-02-17T22:40:41.357Z,61.87
2019-02-17T22:43:46.153Z,66.77
2019-02-17T22:46:50.900Z,69.03
2019-02-17T22:49:55.711Z,69.70
2019-02-17T22:53:00.627Z,65.97
2019-02-17T22:56:05.362Z,68.60
2019-02-17T22:59:10.220Z,66.43
2019-02-17T23:02:15.129Z,66.67
2019-02-17T23:05:19.892Z,72.23
2019-02-17T23:08:24.598Z,70.30
2019-02-17T23:11:29.421Z,69.10
2019-02-17T23:14:34.395Z,69.87
2019-02-17T23:17:39.286Z,70.47
2019-02-17T23:20:45.292Z,72.40
2019-02-17T23:23:50.061Z,75.43
2019-02-17T23:26:54.815Z,76.37
2019-02-17T23:29:59.623Z,80.63
2019-02-17T23:33:04.382Z,85.20
2019-02-17T23:36:09.185Z,86.53
2019-02-17T23:39:13.824Z,90.10
2019-02-17T23:42:18.541Z,96.20
2019-02-17T23:45:23.418Z,96.23
2019-02-17T23:48:28.198Z,93.90
2019-02-17T23:51:32.928Z,99.47
2019-02-17T23:54:37.548Z,99.97
2019-02-17T23:57:42.226Z,101.10
